Weather at Prince Hassan Air Base

Public forecast

Using degrees Celsius for public forecast. Weather courtesy of forecast.io.

Closest aviation weather report (METAR) to Prince Hassan Air Base

Closest report is Gurayat Domestic Airport, 45.4 nm (84.1 km) S.

2024/05/24 19:00 (retrieved 15 minutes ago)

OEGT 241900Z 29020KT CAVOK 22/04 Q1011 NOSIG

Closest aviation forecast (TAF) to Prince Hassan Air Base

Forecast is more than 6 hours old.

Closest forecast is Gurayat Domestic Airport, 45.4 nm (84.1 km) S.

2024/05/24 12:18 (retrieved 7 hours ago)

TAF OEGT 241100Z 2412/2518 33016KT 7000 NSC PROB30 TEMPO 2412/2418 4000 BLDU BECMG 2422/2500 30006KT BECMG 2506/2508 30016KT